Lakeview, Nevada
Current Conditions -  °F | °C
As of 6:35 PM on Saturday 20 Dec 2014 (Local Time) from KCXP Reporting Station
Scattered Clouds Scattered Clouds  
Wind Chill: 50°   Ceiling: Unl
Heat Index: 50°   Visibility: 10mi
Dew Point: 34°   Wind: 10mph
Humidity: 54%   Direction: 230°SW
Pressure: 30.14"   Gusts: NA
Location:  39.1386°N, 119.659°W
Report Text: KCXP 210235Z AUTO 23009KT 160V250 10SM SCT120 10/01 A3014 RMK AO2
Loading
Personal Weather Stations






























Interactive Weather Map New forecast layout! Learn more

10-Day Weather Forecast

Advertisements
Track Severe Weather on mobile